Terminal Aerodrome Forecast
Issued by NWS

Home | Current Version | Previous Version | Text Only | Print | Product List | Glossary On
Versions: 1 2 3 4 5 6 7 8 9 10 11 12 13 14
897
FTUS46 KPDT 281720
TAFDLS
TAF
KDLS 281720Z 2818/2918 02007KT P6SM FEW090
     FM290300 34005KT P6SM SKC
     FM291500 33003KT P6SM FEW120=

USA.gov is the U.S. government's official web portal to all federal, state and local government web resources and services.